createdAt,value
2023-03-12T00:02:25.155Z,-0.83
2023-03-12T00:05:28.880Z,-0.77
2023-03-12T00:08:31.488Z,-0.72
2023-03-12T00:11:34.142Z,-0.78
2023-03-12T00:14:37.088Z,-0.69
2023-03-12T00:17:39.707Z,-0.60
2023-03-12T00:20:42.234Z,-0.58
2023-03-12T00:23:48.180Z,-0.72
2023-03-12T00:26:50.749Z,-0.80
2023-03-12T00:29:53.831Z,-0.69
2023-03-12T00:32:56.495Z,-0.84
2023-03-12T00:36:00.570Z,-0.71
2023-03-12T00:39:03.457Z,-0.72
2023-03-12T00:42:06.166Z,-0.71
2023-03-12T00:45:09.275Z,-0.73
2023-03-12T00:48:11.990Z,-0.82
2023-03-12T00:51:14.884Z,-0.89
2023-03-12T00:54:17.606Z,-0.86
2023-03-12T00:57:20.496Z,-0.87
2023-03-12T01:00:24.133Z,-0.94
2023-03-12T01:03:26.800Z,-1.11
2023-03-12T01:06:29.424Z,-1.12
2023-03-12T01:09:35.291Z,-1.09
2023-03-12T01:12:37.935Z,-1.18
2023-03-12T01:15:40.527Z,-1.18
2023-03-12T01:18:43.101Z,-1.26
2023-03-12T01:21:45.676Z,-1.30
2023-03-12T01:24:48.660Z,-1.30
2023-03-12T01:27:51.345Z,-1.33
2023-03-12T01:30:54.092Z,-1.20
2023-03-12T01:33:59.488Z,-1.27
2023-03-12T01:37:02.620Z,-1.12
2023-03-12T01:40:06.106Z,-1.28
2023-03-12T01:43:31.701Z,-1.35
2023-03-12T01:46:37.041Z,-1.42
2023-03-12T01:49:45.728Z,-1.39
2023-03-12T01:52:48.797Z,-1.52
2023-03-12T01:55:51.703Z,-1.50
2023-03-12T01:58:56.739Z,-1.50
2023-03-12T02:01:59.882Z,-1.56
2023-03-12T02:05:15.139Z,-1.57
2023-03-12T02:08:18.351Z,-1.60
2023-03-12T02:11:21.116Z,-1.59
2023-03-12T02:14:23.888Z,-1.58
2023-03-12T02:17:26.777Z,-1.56
2023-03-12T02:20:40.384Z,-1.45
2023-03-12T02:23:52.070Z,-1.47
2023-03-12T02:26:54.870Z,-1.38
2023-03-12T02:29:57.642Z,-1.48
2023-03-12T02:33:03.497Z,-1.57
2023-03-12T02:36:06.382Z,-1.66
2023-03-12T02:39:11.464Z,-1.57
2023-03-12T02:42:14.729Z,-1.49
2023-03-12T02:45:17.978Z,-1.66
2023-03-12T02:48:21.234Z,-1.65
2023-03-12T02:51:23.800Z,-1.61
2023-03-12T02:54:26.735Z,-1.67
2023-03-12T02:57:29.809Z,-1.74
2023-03-12T03:00:32.731Z,-1.77
2023-03-12T03:03:35.728Z,-1.80
2023-03-12T03:06:40.413Z,-1.94
2023-03-12T03:09:43.042Z,-1.90
2023-03-12T03:12:45.915Z,-1.88
2023-03-12T03:15:48.868Z,-2.00
2023-03-12T03:18:51.621Z,-1.95
2023-03-12T03:21:54.213Z,-1.99
2023-03-12T03:24:56.840Z,-1.99
2023-03-12T03:27:59.309Z,-1.91
2023-03-12T03:31:02.419Z,-1.99
2023-03-12T03:34:08.750Z,-2.00
2023-03-12T03:37:11.441Z,-1.92
2023-03-12T03:40:14.620Z,-1.99
2023-03-12T03:43:17.261Z,-1.98
2023-03-12T03:46:20.863Z,-2.01
2023-03-12T03:49:29.221Z,-2.14
2023-03-12T03:52:32.446Z,-2.19
2023-03-12T03:55:39.947Z,-2.26
2023-03-12T03:58:43.860Z,-2.18
2023-03-12T04:01:46.817Z,-2.22
2023-03-12T04:04:50.017Z,-2.18
2023-03-12T04:07:53.864Z,-2.19
2023-03-12T04:10:59.205Z,-2.18
2023-03-12T04:14:02.023Z,-2.18
2023-03-12T04:17:08.330Z,-2.16
2023-03-12T04:20:11.908Z,-2.15
2023-03-12T04:23:16.700Z,-2.15
2023-03-12T04:26:19.389Z,-2.14
2023-03-12T04:29:21.997Z,-2.23
2023-03-12T04:32:24.748Z,-2.29
2023-03-12T04:35:28.346Z,-2.49
2023-03-12T04:38:31.980Z,-2.41
2023-03-12T04:41:35.961Z,-2.53
2023-03-12T04:44:52.876Z,-2.61
2023-03-12T04:47:56.191Z,-2.63
2023-03-12T04:50:58.950Z,-2.68
2023-03-12T04:54:01.657Z,-2.71
2023-03-12T04:57:04.504Z,-2.66
2023-03-12T05:00:11.308Z,-2.70
2023-03-12T05:03:14.722Z,-2.74
2023-03-12T05:06:17.893Z,-2.71
2023-03-12T05:09:20.700Z,-2.77
2023-03-12T05:12:23.902Z,-2.73
2023-03-12T05:15:27.134Z,-2.72
2023-03-12T05:18:30.075Z,-2.74
2023-03-12T05:21:33.491Z,-2.81
2023-03-12T05:24:36.086Z,-2.77
2023-03-12T05:27:38.829Z,-2.79
2023-03-12T05:30:41.571Z,-2.73
2023-03-12T05:33:44.830Z,-2.57
2023-03-12T05:36:47.677Z,-2.65
2023-03-12T05:39:55.439Z,-2.69
2023-03-12T05:42:58.171Z,-2.70
2023-03-12T05:46:04.200Z,-2.69
2023-03-12T05:49:08.973Z,-2.67
2023-03-12T05:52:12.295Z,-2.64
2023-03-12T05:55:15.404Z,-2.58
2023-03-12T05:58:19.342Z,-2.33
2023-03-12T06:01:25.076Z,-2.20
2023-03-12T06:04:30.115Z,-2.03
2023-03-12T06:07:32.717Z,-1.87
2023-03-12T06:10:38.214Z,-1.70
2023-03-12T06:13:41.619Z,-1.62
2023-03-12T06:16:44.405Z,-1.44
2023-03-12T06:19:51.806Z,-1.43
2023-03-12T06:22:56.287Z,-1.39
2023-03-12T06:26:00.100Z,-1.17
2023-03-12T06:29:03.264Z,-1.12
2023-03-12T06:32:06.156Z,-1.15
2023-03-12T06:35:09.268Z,-1.23
2023-03-12T06:38:12.238Z,-1.00
2023-03-12T06:41:17.332Z,-1.22
2023-03-12T06:44:20.082Z,-0.88
2023-03-12T06:47:23.045Z,-1.09
2023-03-12T06:50:25.858Z,-0.91
2023-03-12T06:53:28.544Z,-0.98
2023-03-12T06:56:32.625Z,-1.03
2023-03-12T06:59:35.490Z,-1.00
2023-03-12T07:02:38.271Z,-0.97
2023-03-12T07:05:44.804Z,-0.78
2023-03-12T07:08:48.043Z,-0.60
2023-03-12T07:11:50.724Z,-0.49
2023-03-12T07:14:53.660Z,-0.51
2023-03-12T07:18:00.698Z,-0.68
2023-03-12T07:21:04.518Z,-0.54
2023-03-12T07:24:08.708Z,-0.60
2023-03-12T07:27:11.391Z,-0.55
2023-03-12T07:30:14.190Z,-0.33
2023-03-12T07:33:19.261Z,-0.44
2023-03-12T07:36:22.048Z,-0.29
2023-03-12T07:39:27.004Z,-0.15
2023-03-12T07:42:30.019Z,0.03
2023-03-12T07:45:33.086Z,-0.15
2023-03-12T07:48:35.719Z,0.09
2023-03-12T07:51:38.632Z,-0.03
2023-03-12T07:54:41.561Z,-0.01
2023-03-12T07:57:44.605Z,0.40
2023-03-12T08:00:47.152Z,0.13
2023-03-12T08:03:50.116Z,0.26
2023-03-12T08:06:52.983Z,0.58
2023-03-12T08:09:55.984Z,0.50
2023-03-12T08:12:58.904Z,0.82
2023-03-12T08:16:02.003Z,0.94
2023-03-12T08:19:05.106Z,0.82
2023-03-12T08:22:07.927Z,0.78
2023-03-12T08:25:11.298Z,1.05
2023-03-12T08:28:14.687Z,1.21
2023-03-12T08:31:17.450Z,1.25
2023-03-12T08:34:20.219Z,1.44
2023-03-12T08:37:23.563Z,1.44
2023-03-12T08:40:26.449Z,2.05
2023-03-12T08:43:29.656Z,1.90
2023-03-12T08:46:32.578Z,1.87
2023-03-12T08:49:35.300Z,1.63
2023-03-12T08:52:37.945Z,1.71
2023-03-12T08:55:40.837Z,1.84
2023-03-12T08:58:43.654Z,1.79
2023-03-12T09:01:46.768Z,1.71
2023-03-12T09:04:50.821Z,1.79
2023-03-12T09:07:53.973Z,1.66
2023-03-12T09:10:56.615Z,2.17
2023-03-12T09:14:42.412Z,2.09
2023-03-12T09:17:23.404Z,2.30
2023-03-12T09:20:26.367Z,2.23
2023-03-12T09:23:29.627Z,2.47
2023-03-12T09:26:34.182Z,2.22
2023-03-12T09:29:46.509Z,2.33
2023-03-12T09:32:56.492Z,2.36
2023-03-12T09:35:59.697Z,2.83
2023-03-12T09:39:09.134Z,2.94
2023-03-12T09:42:46.283Z,2.79
2023-03-12T09:45:50.961Z,2.77
2023-03-12T09:48:57.758Z,2.85
2023-03-12T09:52:02.648Z,2.88
2023-03-12T09:55:17.421Z,3.04
2023-03-12T09:58:27.487Z,3.03
2023-03-12T10:01:39.070Z,2.84
2023-03-12T10:04:58.879Z,3.08
2023-03-12T10:08:34.794Z,3.08
2023-03-12T10:11:59.340Z,3.01
2023-03-12T10:15:32.748Z,3.30
2023-03-12T10:18:58.598Z,3.71
2023-03-12T10:22:14.752Z,3.32
2023-03-12T10:25:32.376Z,3.64
2023-03-12T10:28:42.181Z,3.73
2023-03-12T10:32:10.089Z,4.06
2023-03-12T10:35:31.999Z,3.85
2023-03-12T10:38:35.000Z,4.05
2023-03-12T10:41:37.856Z,4.20
2023-03-12T10:44:40.750Z,4.31
2023-03-12T10:47:45.034Z,4.09
2023-03-12T10:51:20.369Z,4.15
2023-03-12T10:54:37.968Z,4.29
2023-03-12T10:57:42.461Z,4.43
2023-03-12T11:00:57.154Z,4.45
2023-03-12T11:04:19.171Z,4.48
2023-03-12T11:07:28.251Z,4.56
2023-03-12T11:10:44.041Z,4.32
2023-03-12T11:13:46.849Z,4.75
2023-03-12T11:16:51.008Z,4.93
2023-03-12T11:19:54.929Z,4.91
2023-03-12T11:22:57.945Z,4.93
2023-03-12T11:26:04.770Z,4.90
2023-03-12T11:29:18.946Z,5.14
2023-03-12T11:32:31.873Z,5.52
2023-03-12T11:35:47.801Z,4.95
2023-03-12T11:39:05.429Z,5.50
2023-03-12T11:42:11.634Z,5.69
2023-03-12T11:45:51.692Z,5.72
2023-03-12T11:49:03.565Z,5.77
2023-03-12T11:52:14.901Z,5.97
2023-03-12T11:55:40.835Z,5.95
2023-03-12T11:59:15.950Z,6.14
2023-03-12T12:03:07.163Z,5.97
2023-03-12T12:06:39.198Z,6.50
2023-03-12T12:09:50.752Z,6.68
2023-03-12T12:13:08.607Z,6.39
2023-03-12T12:16:20.526Z,6.11
2023-03-12T12:19:27.746Z,5.91
2023-03-12T12:22:39.484Z,6.27
2023-03-12T12:26:08.651Z,6.29
2023-03-12T12:29:17.476Z,6.34
2023-03-12T12:32:43.482Z,6.62
2023-03-12T12:35:46.550Z,6.87
2023-03-12T12:38:57.141Z,6.90
2023-03-12T12:42:03.436Z,7.34
2023-03-12T12:45:07.254Z,7.50
2023-03-12T12:48:12.595Z,6.92
2023-03-12T12:51:17.145Z,6.99
2023-03-12T12:54:22.859Z,6.99
2023-03-12T12:57:46.388Z,7.21
2023-03-12T13:00:59.491Z,7.39
2023-03-12T13:04:25.885Z,7.41
2023-03-12T13:07:31.921Z,7.42
2023-03-12T13:10:34.740Z,7.45
2023-03-12T13:13:37.465Z,7.94
2023-03-12T13:16:47.530Z,7.92
2023-03-12T13:20:00.694Z,7.95
2023-03-12T13:23:36.852Z,8.11
2023-03-12T13:26:54.861Z,7.70
2023-03-12T13:29:58.320Z,7.97
2023-03-12T13:33:03.728Z,8.28
2023-03-12T13:36:17.707Z,8.08
2023-03-12T13:39:30.728Z,8.13
2023-03-12T13:42:40.580Z,8.23
2023-03-12T13:46:01.857Z,7.59
2023-03-12T13:49:11.697Z,7.81
2023-03-12T13:52:14.955Z,7.43
2023-03-12T13:55:23.022Z,7.40
2023-03-12T13:58:27.893Z,7.74
2023-03-12T14:01:36.622Z,7.63
2023-03-12T14:04:42.694Z,7.68
2023-03-12T14:08:11.636Z,7.77
2023-03-12T14:11:42.138Z,7.39
2023-03-12T14:14:54.454Z,7.26
2023-03-12T14:18:13.007Z,7.57
2023-03-12T14:21:17.101Z,7.71
2023-03-12T14:24:30.461Z,8.17
2023-03-12T14:27:34.498Z,8.11
2023-03-12T14:30:45.388Z,7.80
2023-03-12T14:34:09.499Z,7.90
2023-03-12T14:37:16.616Z,7.81
2023-03-12T14:40:30.481Z,8.16
2023-03-12T14:43:35.375Z,7.98
2023-03-12T14:46:47.013Z,8.13
2023-03-12T14:49:49.843Z,8.23
2023-03-12T14:52:53.920Z,8.59
2023-03-12T14:56:06.051Z,8.31
2023-03-12T14:59:39.286Z,8.39
2023-03-12T15:02:43.547Z,8.07
2023-03-12T15:05:48.086Z,8.07
2023-03-12T15:08:50.850Z,7.95
2023-03-12T15:11:56.500Z,8.05
2023-03-12T15:15:08.412Z,7.80
2023-03-12T15:18:18.459Z,7.75
2023-03-12T15:21:21.809Z,7.51
2023-03-12T15:24:25.004Z,7.44
2023-03-12T15:27:29.024Z,7.26
2023-03-12T15:30:32.459Z,7.32
2023-03-12T15:33:35.373Z,7.23
2023-03-12T15:36:48.392Z,7.13
2023-03-12T15:39:53.010Z,7.26
2023-03-12T15:42:59.784Z,7.23
2023-03-12T15:46:04.257Z,7.24
2023-03-12T15:49:36.532Z,6.83
2023-03-12T15:52:39.256Z,6.91
2023-03-12T15:55:42.514Z,6.66
2023-03-12T15:58:47.001Z,6.58
2023-03-12T16:01:53.266Z,6.38
2023-03-12T16:04:56.132Z,6.35
2023-03-12T16:08:26.665Z,6.18
2023-03-12T16:11:31.270Z,6.06
2023-03-12T16:14:36.471Z,6.07
2023-03-12T16:17:39.264Z,6.05
2023-03-12T16:20:42.510Z,6.04
2023-03-12T16:23:45.266Z,6.11
2023-03-12T16:26:58.647Z,5.97
2023-03-12T16:30:01.864Z,5.84
2023-03-12T16:33:09.062Z,5.75
2023-03-12T16:36:17.860Z,5.48
2023-03-12T16:39:20.899Z,5.30
2023-03-12T16:42:23.666Z,5.38
2023-03-12T16:45:28.089Z,5.35
2023-03-12T16:48:30.840Z,5.38
2023-03-12T16:51:33.972Z,5.34
2023-03-12T16:54:37.123Z,5.22
2023-03-12T16:57:44.492Z,5.11
2023-03-12T17:00:47.573Z,5.01
2023-03-12T17:03:50.588Z,4.92
2023-03-12T17:06:53.557Z,4.73
2023-03-12T17:09:56.471Z,4.67
2023-03-12T17:12:59.734Z,4.59
2023-03-12T17:16:02.447Z,4.53
2023-03-12T17:19:05.260Z,4.44
2023-03-12T17:22:08.018Z,4.30
2023-03-12T17:25:24.204Z,4.31
2023-03-12T17:28:27.162Z,4.31
2023-03-12T17:31:29.905Z,4.24
2023-03-12T17:34:32.706Z,4.27
2023-03-12T17:37:35.684Z,4.34
2023-03-12T17:40:43.426Z,4.34
2023-03-12T17:43:46.355Z,4.23
2023-03-12T17:46:58.881Z,4.11
2023-03-12T17:50:03.362Z,4.04
2023-03-12T17:53:06.346Z,4.03
2023-03-12T17:56:09.447Z,4.04
2023-03-12T17:59:12.311Z,4.05
2023-03-12T18:02:15.047Z,4.20
2023-03-12T18:05:18.034Z,4.25
2023-03-12T18:08:20.821Z,4.16
2023-03-12T18:11:23.734Z,4.04
2023-03-12T18:14:26.885Z,4.06
2023-03-12T18:17:29.887Z,4.09
2023-03-12T18:20:39.099Z,4.04
2023-03-12T18:23:44.044Z,3.98
2023-03-12T18:26:50.068Z,4.02
2023-03-12T18:29:53.109Z,3.97
2023-03-12T18:32:55.953Z,3.90
2023-03-12T18:35:58.937Z,3.86
2023-03-12T18:39:04.930Z,3.90
2023-03-12T18:42:08.156Z,3.85
2023-03-12T18:45:12.281Z,3.81
2023-03-12T18:48:15.252Z,3.88
2023-03-12T18:51:18.301Z,3.88
2023-03-12T18:54:23.578Z,3.87
2023-03-12T18:57:28.161Z,3.91
2023-03-12T19:00:32.212Z,3.90
2023-03-12T19:03:36.893Z,3.90
2023-03-12T19:06:50.288Z,3.94
2023-03-12T19:09:55.000Z,3.99
2023-03-12T19:12:59.156Z,3.86
2023-03-12T19:16:05.824Z,3.97
2023-03-12T19:19:10.538Z,3.87
2023-03-12T19:22:13.821Z,3.83
2023-03-12T19:25:17.628Z,3.84
2023-03-12T19:28:22.085Z,3.82
2023-03-12T19:31:26.066Z,3.86
2023-03-12T19:34:29.529Z,3.77
2023-03-12T19:37:33.004Z,3.71
2023-03-12T19:40:38.299Z,3.80
2023-03-12T19:43:43.102Z,3.81
2023-03-12T19:46:46.647Z,3.82
2023-03-12T19:49:50.445Z,3.76
2023-03-12T19:52:54.546Z,3.75
2023-03-12T19:55:58.349Z,3.78
2023-03-12T19:59:02.248Z,3.69
2023-03-12T20:02:06.779Z,3.66
2023-03-12T20:05:12.554Z,3.77
2023-03-12T20:08:19.773Z,3.78
2023-03-12T20:11:22.970Z,3.77
2023-03-12T20:14:26.330Z,3.67
2023-03-12T20:17:30.438Z,3.67
2023-03-12T20:20:33.815Z,3.72
2023-03-12T20:23:37.601Z,3.64
2023-03-12T20:26:42.152Z,3.70
2023-03-12T20:29:47.198Z,3.71
2023-03-12T20:32:52.601Z,3.67
2023-03-12T20:35:57.193Z,3.70
2023-03-12T20:39:01.451Z,3.66
2023-03-12T20:42:05.098Z,3.72
2023-03-12T20:45:09.577Z,3.64
2023-03-12T20:48:13.243Z,3.68
2023-03-12T20:51:16.731Z,3.74
2023-03-12T20:54:19.679Z,3.77
2023-03-12T20:57:23.306Z,3.74
2023-03-12T21:00:28.974Z,3.70
2023-03-12T21:03:33.003Z,3.63
2023-03-12T21:06:36.362Z,3.66
2023-03-12T21:09:39.028Z,3.68
2023-03-12T21:12:42.330Z,3.53
2023-03-12T21:15:45.539Z,3.57
2023-03-12T21:18:48.451Z,3.60
2023-03-12T21:21:51.239Z,3.66
2023-03-12T21:24:54.358Z,3.70
2023-03-12T21:27:57.338Z,3.60
2023-03-12T21:31:12.106Z,3.46
2023-03-12T21:34:15.015Z,3.52
2023-03-12T21:37:17.759Z,3.62
2023-03-12T21:40:20.579Z,3.66
2023-03-12T21:43:23.288Z,3.64
2023-03-12T21:46:30.342Z,3.65
2023-03-12T21:49:36.908Z,3.62
2023-03-12T21:52:43.076Z,3.66
2023-03-12T21:55:55.188Z,3.70
2023-03-12T21:58:58.276Z,3.68
2023-03-12T22:02:01.128Z,3.76
2023-03-12T22:05:03.962Z,3.72
2023-03-12T22:08:06.521Z,3.71
2023-03-12T22:11:09.933Z,3.74
2023-03-12T22:14:12.619Z,3.76
2023-03-12T22:17:15.535Z,3.59
2023-03-12T22:20:18.491Z,3.59
2023-03-12T22:23:22.125Z,3.69
2023-03-12T22:26:26.951Z,3.65
2023-03-12T22:29:29.531Z,3.60
2023-03-12T22:32:32.596Z,3.49
2023-03-12T22:35:35.480Z,3.56
2023-03-12T22:38:39.053Z,3.47
2023-03-12T22:41:41.659Z,3.57
2023-03-12T22:44:44.203Z,3.55
2023-03-12T22:47:46.815Z,3.51
2023-03-12T22:50:55.865Z,3.50
2023-03-12T22:53:58.592Z,3.49
2023-03-12T22:57:01.259Z,3.55
2023-03-12T23:00:12.792Z,3.35
2023-03-12T23:03:15.408Z,3.41
2023-03-12T23:06:25.892Z,3.51
2023-03-12T23:09:28.789Z,3.47
2023-03-12T23:12:31.630Z,3.46
2023-03-12T23:15:40.897Z,3.49
2023-03-12T23:18:44.866Z,3.55
2023-03-12T23:21:47.482Z,3.59
2023-03-12T23:24:50.190Z,3.60
2023-03-12T23:27:52.709Z,3.63
2023-03-12T23:31:00.474Z,3.62
2023-03-12T23:34:03.148Z,3.54
2023-03-12T23:37:06.373Z,3.58
2023-03-12T23:40:11.325Z,3.58
2023-03-12T23:43:13.996Z,3.60
2023-03-12T23:46:19.850Z,3.51
2023-03-12T23:49:22.501Z,3.60
2023-03-12T23:52:28.382Z,3.59
2023-03-12T23:55:31.020Z,3.58
2023-03-12T23:58:33.895Z,3.59
